This is the latest recevied weather packets stored in our database for station/object KU9TRY. If no packets are shown the sender has not sent any weather packets the latest 10 day(s).
| Time | Temp. | Humidity | Pressure | Rain* | Wind** | Luminosity | Snow |
|---|---|---|---|---|---|---|---|
| 1777258532 | 15.56° C | 81% | 1015.2 hPa | 0 mm | - | 0 W/m² | - |
| 1777258229 | 15.56° C | 81% | 1015 hPa | 0 mm | - | 0 W/m² | - |
| 1777257926 | 15.56° C | 82% | 1015.1 hPa | 0 mm | - | 0 W/m² | - |
| 1777257320 | 15.56° C | 82% | 1014.9 hPa | 0 mm | - | 0 W/m² | - |
| 1777256714 | 15.56° C | 81% | 1014.8 hPa | 0 mm | - | 0 W/m² | - |
| 1777256409 | 16.11° C | 81% | 1014.7 hPa | 0 mm | - | 0 W/m² | - |
| 1777235796 | 26.11° C | 41% | 1012.9 hPa | 0 mm | - | 54 W/m² | - |
| 1777235189 | 26.67° C | 39% | 1013.1 hPa | 0 mm | - | 67 W/m² | - |
| 1777234581 | 26.67° C | 40% | 1013 hPa | 0 mm | - | 75 W/m² | - |
| 1777234281 | 26.11° C | 38% | 1012.8 hPa | 0 mm | - | 75 W/m² | - |
| 1777233978 | 26.11° C | 40% | 1013.1 hPa | 0 mm | - | 77 W/m² | - |
| 1777233375 | 26.11° C | 41% | 1012.9 hPa | 0 mm | - | 60 W/m² | - |
| 1777231859 | 26.67° C | 40% | 1013.3 hPa | 0 mm | - | 124 W/m² | - |
| 1777230948 | 26.11° C | 41% | 1013.3 hPa | 0 mm | - | 123 W/m² | - |
| 1777229127 | 25.56° C | 44% | 1013.6 hPa | 0 mm | - | 119 W/m² | - |
| 1777227915 | 26.11° C | 44% | 1013.9 hPa | 0 mm | - | 191 W/m² | - |
| 1777227611 | 26.11° C | 42% | 1014 hPa | 0 mm | - | 175 W/m² | - |
| 1777226094 | 25.56° C | 45% | 1014 hPa | 0 mm | - | 177 W/m² | - |
| 1777222757 | 25.56° C | 48% | 1014.5 hPa | 0 mm | - | 742 W/m² | - |
| 1777219121 | 25° C | 59% | 1014.9 hPa | 0 mm | - | 1035 W/m² | - |
| 1777218513 | 24.44° C | 58% | 1014.9 hPa | 0 mm | - | 924 W/m² | - |
| 1777217906 | 23.89° C | 58% | 1015 hPa | 0 mm | - | 884 W/m² | - |
| 1777217605 | 23.89° C | 60% | 1014.9 hPa | 0 mm | - | 872 W/m² | - |
| 1777217302 | 23.33° C | 64% | 1015.1 hPa | 0 mm | - | 857 W/m² | - |
| 1777216998 | 23.33° C | 64% | 1014.9 hPa | 0 mm | - | 844 W/m² | - |
* Rain latest hour (hover to see other rain measurements)
** Current wind speed in m/s (hover to see current wind gust speed)